Terminal Aerodrome Forecast
Issued by NWS Charleston, SC

Home | Current Version | Previous Version | Text Only | Print | Product List | Glossary On
Versions: 1 2 3 4 5 6 7 8 9 10 11 12 13 14 15 16
099
FTUS42 KCHS 082126 AAB
TAFCHS
TAF AMD
KCHS 082126Z 0821/0918 21017G23KT P6SM BKN080
     FM082200 23017G25KT P6SM VCSH SCT040 BKN060
      TEMPO 0823/0903 28025G32KT 5SM SHRA BKN035
     FM090600 27015G21KT P6SM SCT050
     FM091500 27017G27KT P6SM SCT035 BKN050=

USA.gov is the U.S. government's official web portal to all federal, state and local government web resources and services.